createdAt,value
2023-04-02T00:00:33.184Z,97170.72
2023-04-02T00:01:38.824Z,97168.41
2023-04-02T00:02:56.966Z,97162.41
2023-04-02T00:04:04.228Z,97165.97
2023-04-02T00:05:31.442Z,97169.69
2023-04-02T00:06:40.728Z,97171.13
2023-04-02T00:07:53.119Z,97172.41
2023-04-02T00:08:59.311Z,97166.44
2023-04-02T00:10:02.735Z,97176.19
2023-04-02T00:11:07.184Z,97165.94
2023-04-02T00:12:19.710Z,97164.59
2023-04-02T00:13:45.277Z,97173.56
2023-04-02T00:14:52.183Z,97176.75
2023-04-02T00:15:58.081Z,97182.25
2023-04-02T00:17:03.724Z,97180.41
2023-04-02T00:18:07.937Z,97172.13
2023-04-02T00:19:27.695Z,97180.03
2023-04-02T00:20:36.524Z,97174.72
2023-04-02T00:21:41.945Z,97177.94
2023-04-02T00:22:45.906Z,97170.56
2023-04-02T00:23:48.978Z,97175.00
2023-04-02T00:24:54.551Z,97172.87
2023-04-02T00:25:57.307Z,97177.44
2023-04-02T00:27:01.020Z,97183.31
2023-04-02T00:28:04.545Z,97176.84
2023-04-02T00:29:10.394Z,97172.50
2023-04-02T00:30:13.779Z,97179.28
2023-04-02T00:31:19.332Z,97177.94
2023-04-02T00:32:28.193Z,97175.38
2023-04-02T00:33:32.481Z,97172.84
2023-04-02T00:34:38.409Z,97176.53
2023-04-02T00:35:42.024Z,97169.12
2023-04-02T00:36:46.898Z,97176.38
2023-04-02T00:37:50.627Z,97169.22
2023-04-02T00:38:58.532Z,97172.13
2023-04-02T00:40:07.470Z,97169.91
2023-04-02T00:41:20.024Z,97170.12
2023-04-02T00:42:25.560Z,97180.16
2023-04-02T00:43:32.051Z,97171.75
2023-04-02T00:44:43.029Z,97180.81
2023-04-02T00:45:51.485Z,97175.75
2023-04-02T00:46:54.832Z,97180.94
2023-04-02T00:48:00.960Z,97178.44
2023-04-02T00:49:14.834Z,97179.88
2023-04-02T00:50:29.451Z,97175.75
2023-04-02T00:51:48.563Z,97179.03
2023-04-02T00:52:53.892Z,97180.97
2023-04-02T00:54:01.129Z,97180.37
2023-04-02T00:55:15.230Z,97183.84
2023-04-02T00:56:26.644Z,97178.00
2023-04-02T00:57:29.973Z,97180.28
2023-04-02T00:58:36.914Z,97181.25
2023-04-02T01:00:19.585Z,97185.41
2023-04-02T01:01:27.966Z,97180.97
2023-04-02T01:02:33.811Z,97181.25
2023-04-02T01:03:37.861Z,97187.63
2023-04-02T01:04:41.923Z,97176.25
2023-04-02T01:05:48.517Z,97181.84
2023-04-02T01:06:53.922Z,97186.47
2023-04-02T01:08:17.197Z,97182.53
2023-04-02T01:09:37.961Z,97177.88
2023-04-02T01:10:55.986Z,97185.22
2023-04-02T01:12:25.143Z,97192.44
2023-04-02T01:13:40.958Z,97190.78
2023-04-02T01:14:57.996Z,97184.31
2023-04-02T01:16:07.106Z,97178.94
2023-04-02T01:17:32.738Z,97187.69
2023-04-02T01:18:46.927Z,97190.03
2023-04-02T01:20:09.101Z,97189.53
2023-04-02T01:21:30.772Z,97181.22
2023-04-02T01:22:42.266Z,97191.66
2023-04-02T01:24:06.347Z,97190.31
2023-04-02T01:25:18.029Z,97183.25
2023-04-02T01:26:31.277Z,97186.84
2023-04-02T01:27:41.525Z,97177.41
2023-04-02T01:29:07.224Z,97180.19
2023-04-02T01:30:12.827Z,97174.59
2023-04-02T01:31:16.838Z,97182.22
2023-04-02T01:32:22.236Z,97178.44
2023-04-02T01:33:35.512Z,97175.84
2023-04-02T01:34:39.477Z,97180.00
2023-04-02T01:35:49.399Z,97182.41
2023-04-02T01:37:14.016Z,97181.72
2023-04-02T01:38:35.015Z,97181.25
2023-04-02T01:39:37.620Z,97184.62
2023-04-02T01:40:51.473Z,97184.25
2023-04-02T01:42:24.733Z,97187.41
2023-04-02T01:43:32.522Z,97185.88
2023-04-02T01:44:35.349Z,97183.38
2023-04-02T01:45:38.758Z,97190.91
2023-04-02T01:46:43.336Z,97188.09
2023-04-02T01:47:46.704Z,97189.34
2023-04-02T01:48:49.953Z,97187.81
2023-04-02T01:49:58.632Z,97192.34
2023-04-02T01:51:04.208Z,97179.59
2023-04-02T01:52:07.850Z,97198.81
2023-04-02T01:53:16.610Z,97187.63
2023-04-02T01:54:20.393Z,97194.94
2023-04-02T01:55:39.231Z,97186.88
2023-04-02T01:56:43.895Z,97195.63
2023-04-02T01:57:52.627Z,97194.38
2023-04-02T01:58:57.174Z,97199.75
2023-04-02T02:00:02.141Z,97198.22
2023-04-02T02:01:14.473Z,97198.50
2023-04-02T02:02:17.974Z,97199.28
2023-04-02T02:03:21.986Z,97202.34
2023-04-02T02:04:25.059Z,97193.12
2023-04-02T02:05:28.981Z,97195.53
2023-04-02T02:06:32.081Z,97194.38
2023-04-02T02:07:35.876Z,97191.78
2023-04-02T02:08:58.520Z,97197.44
2023-04-02T02:10:01.829Z,97191.88
2023-04-02T02:11:07.261Z,97186.84
2023-04-02T02:12:15.051Z,97189.13
2023-04-02T02:13:18.132Z,97185.31
2023-04-02T02:14:24.968Z,97187.41
2023-04-02T02:15:28.877Z,97189.94
2023-04-02T02:16:32.259Z,97186.25
2023-04-02T02:17:35.675Z,97189.03
2023-04-02T02:18:38.695Z,97192.81
2023-04-02T02:20:00.014Z,97194.63
2023-04-02T02:21:08.393Z,97199.19
2023-04-02T02:22:37.563Z,97194.16
2023-04-02T02:23:40.914Z,97193.97
2023-04-02T02:24:44.565Z,97189.13
2023-04-02T02:25:48.481Z,97193.66
2023-04-02T02:27:17.420Z,97192.09
2023-04-02T02:28:36.781Z,97197.38
2023-04-02T02:29:43.376Z,97193.16
2023-04-02T02:31:14.087Z,97192.91
2023-04-02T02:32:20.053Z,97195.91
2023-04-02T02:33:32.272Z,97183.84
2023-04-02T02:34:42.441Z,97190.81
2023-04-02T02:36:03.720Z,97196.34
2023-04-02T02:37:15.140Z,97202.22
2023-04-02T02:38:42.934Z,97195.16
2023-04-02T02:39:52.104Z,97187.75
2023-04-02T02:41:01.527Z,97199.97
2023-04-02T02:42:24.987Z,97200.84
2023-04-02T02:43:28.585Z,97203.72
2023-04-02T02:44:37.584Z,97201.63
2023-04-02T02:45:43.706Z,97197.94
2023-04-02T02:46:59.403Z,97208.94
2023-04-02T02:48:03.827Z,97205.19
2023-04-02T02:49:10.250Z,97200.56
2023-04-02T02:50:21.552Z,97205.00
2023-04-02T02:51:38.224Z,97208.88
2023-04-02T02:52:46.549Z,97206.31
2023-04-02T02:53:54.977Z,97215.50
2023-04-02T02:55:11.528Z,97204.37
2023-04-02T02:56:15.091Z,97207.91
2023-04-02T02:57:23.528Z,97204.75
2023-04-02T02:58:33.006Z,97206.25
2023-04-02T02:59:36.472Z,97200.38
2023-04-02T03:00:40.929Z,97201.13
2023-04-02T03:01:45.236Z,97207.16
2023-04-02T03:02:50.285Z,97207.78
2023-04-02T03:03:55.264Z,97207.69
2023-04-02T03:04:58.762Z,97203.37
2023-04-02T03:06:07.651Z,97206.75
2023-04-02T03:07:11.321Z,97206.00
2023-04-02T03:08:40.449Z,97211.28
2023-04-02T03:09:52.521Z,97214.09
2023-04-02T03:11:10.521Z,97209.34
2023-04-02T03:12:31.788Z,97207.94
2023-04-02T03:13:36.927Z,97218.03
2023-04-02T03:14:46.838Z,97213.41
2023-04-02T03:16:23.703Z,97219.59
2023-04-02T03:17:51.966Z,97223.16
2023-04-02T03:18:58.660Z,97217.28
2023-04-02T03:20:16.272Z,97218.81
2023-04-02T03:21:28.512Z,97221.13
2023-04-02T03:22:41.866Z,97214.00
2023-04-02T03:23:51.820Z,97218.16
2023-04-02T03:25:02.352Z,97216.31
2023-04-02T03:26:21.270Z,97209.69
2023-04-02T03:27:34.875Z,97216.03
2023-04-02T03:28:46.882Z,97216.50
2023-04-02T03:30:22.262Z,97213.81
2023-04-02T03:31:34.802Z,97212.19
2023-04-02T03:32:41.181Z,97219.81
2023-04-02T03:33:48.671Z,97222.78
2023-04-02T03:35:00.610Z,97215.69
2023-04-02T03:36:19.258Z,97219.22
2023-04-02T03:37:38.854Z,97222.62
2023-04-02T03:38:47.383Z,97220.88
2023-04-02T03:39:56.974Z,97221.75
2023-04-02T03:41:10.722Z,97223.00
2023-04-02T03:42:19.925Z,97225.41
2023-04-02T03:43:26.634Z,97219.78
2023-04-02T03:44:44.745Z,97225.19
2023-04-02T03:45:53.478Z,97217.19
2023-04-02T03:47:04.267Z,97225.88
2023-04-02T03:48:13.408Z,97220.94
2023-04-02T03:49:27.017Z,97223.16
2023-04-02T03:50:44.682Z,97221.13
2023-04-02T03:52:01.087Z,97232.81
2023-04-02T03:53:05.555Z,97227.50
2023-04-02T03:54:15.907Z,97222.88
2023-04-02T03:55:24.396Z,97226.66
2023-04-02T03:56:40.155Z,97233.38
2023-04-02T03:58:16.778Z,97236.94
2023-04-02T03:59:37.400Z,97233.00
2023-04-02T04:00:57.954Z,97230.00
2023-04-02T04:02:01.066Z,97234.91
2023-04-02T04:03:14.701Z,97230.22
2023-04-02T04:04:20.768Z,97234.34
2023-04-02T04:05:31.161Z,97232.31
2023-04-02T04:06:36.456Z,97224.00
2023-04-02T04:07:41.675Z,97236.25
2023-04-02T04:08:50.893Z,97235.56
2023-04-02T04:09:54.733Z,97231.63
2023-04-02T04:11:02.417Z,97233.72
2023-04-02T04:12:27.012Z,97233.84
2023-04-02T04:13:40.651Z,97238.28
2023-04-02T04:14:49.873Z,97237.97
2023-04-02T04:16:04.382Z,97237.28
2023-04-02T04:17:10.060Z,97237.22
2023-04-02T04:18:30.063Z,97236.25
2023-04-02T04:19:45.799Z,97244.44
2023-04-02T04:21:03.550Z,97246.06
2023-04-02T04:22:32.132Z,97246.66
2023-04-02T04:23:41.290Z,97235.56
2023-04-02T04:24:46.117Z,97250.09
2023-04-02T04:25:58.170Z,97246.91
2023-04-02T04:27:33.931Z,97246.84
2023-04-02T04:28:47.819Z,97251.84
2023-04-02T04:30:04.157Z,97245.00
2023-04-02T04:31:18.424Z,97248.56
2023-04-02T04:32:35.624Z,97251.16
2023-04-02T04:33:46.601Z,97252.44
2023-04-02T04:34:53.870Z,97250.63
2023-04-02T04:35:59.793Z,97251.13
2023-04-02T04:37:08.298Z,97257.37
2023-04-02T04:38:33.161Z,97254.88
2023-04-02T04:39:47.745Z,97256.22
2023-04-02T04:41:13.608Z,97258.34
2023-04-02T04:42:38.866Z,97261.22
2023-04-02T04:44:11.258Z,97250.72
2023-04-02T04:45:33.008Z,97255.25
2023-04-02T04:46:52.455Z,97263.38
2023-04-02T04:48:01.970Z,97260.88
2023-04-02T04:49:17.938Z,97251.63
2023-04-02T04:50:35.744Z,97261.84
2023-04-02T04:51:56.649Z,97258.56
2023-04-02T04:53:07.091Z,97262.34
2023-04-02T04:54:13.609Z,97259.75
2023-04-02T04:55:31.651Z,97266.09
2023-04-02T04:56:34.919Z,97260.09
2023-04-02T04:57:42.144Z,97269.25
2023-04-02T04:58:51.968Z,97266.00
2023-04-02T05:00:08.164Z,97273.22
2023-04-02T05:01:17.529Z,97268.19
2023-04-02T05:02:26.466Z,97273.81
2023-04-02T05:03:52.289Z,97275.75
2023-04-02T05:04:55.296Z,97277.12
2023-04-02T05:06:11.965Z,97271.47
2023-04-02T05:07:23.431Z,97275.41
2023-04-02T05:08:32.051Z,97269.31
2023-04-02T05:09:46.338Z,97272.97
2023-04-02T05:11:07.500Z,97282.59
2023-04-02T05:12:28.672Z,97272.59
2023-04-02T05:13:39.358Z,97276.94
2023-04-02T05:14:50.573Z,97285.34
2023-04-02T05:16:05.136Z,97281.78
2023-04-02T05:17:19.669Z,97277.16
2023-04-02T05:18:40.943Z,97285.06
2023-04-02T05:19:50.865Z,97282.56
2023-04-02T05:21:19.641Z,97282.81
2023-04-02T05:22:28.466Z,97284.66
2023-04-02T05:23:37.942Z,97280.78
2023-04-02T05:25:19.370Z,97281.38
2023-04-02T05:26:34.121Z,97286.28
2023-04-02T05:27:48.399Z,97282.91
2023-04-02T05:28:51.263Z,97288.13
2023-04-02T05:30:05.126Z,97281.25
2023-04-02T05:31:15.484Z,97288.94
2023-04-02T05:32:39.217Z,97293.41
2023-04-02T05:33:47.845Z,97286.63
2023-04-02T05:34:55.191Z,97288.25
2023-04-02T05:36:08.293Z,97293.34
2023-04-02T05:37:19.610Z,97289.38
2023-04-02T05:38:28.873Z,97289.84
2023-04-02T05:39:32.978Z,97285.00
2023-04-02T05:40:43.978Z,97284.22
2023-04-02T05:41:47.838Z,97283.03
2023-04-02T05:42:55.945Z,97282.88
2023-04-02T05:44:20.744Z,97297.84
2023-04-02T05:45:34.966Z,97291.75
2023-04-02T05:46:54.785Z,97289.84
2023-04-02T05:48:02.206Z,97287.25
2023-04-02T05:49:14.099Z,97291.09
2023-04-02T05:50:24.967Z,97295.63
2023-04-02T05:51:43.483Z,97298.00
2023-04-02T05:52:51.068Z,97289.50
2023-04-02T05:54:01.729Z,97293.53
2023-04-02T05:55:13.563Z,97294.41
2023-04-02T05:56:38.523Z,97301.97
2023-04-02T05:58:33.993Z,97299.38
2023-04-02T05:59:45.234Z,97300.34
2023-04-02T06:01:12.221Z,97297.56
2023-04-02T06:02:31.173Z,97297.44
2023-04-02T06:03:34.102Z,97295.63
2023-04-02T06:04:47.544Z,97292.72
2023-04-02T06:05:52.776Z,97295.91
2023-04-02T06:07:16.085Z,97302.97
2023-04-02T06:08:30.689Z,97299.59
2023-04-02T06:09:39.670Z,97305.28
2023-04-02T06:11:07.700Z,97298.22
2023-04-02T06:12:24.086Z,97301.56
2023-04-02T06:13:28.244Z,97299.12
2023-04-02T06:14:31.325Z,97306.81
2023-04-02T06:15:36.749Z,97308.50
2023-04-02T06:16:52.509Z,97312.84
2023-04-02T06:18:08.544Z,97312.72
2023-04-02T06:19:25.969Z,97318.72
2023-04-02T06:20:29.620Z,97321.50
2023-04-02T06:21:32.565Z,97318.37
2023-04-02T06:22:40.480Z,97317.78
2023-04-02T06:23:50.663Z,97318.72
2023-04-02T06:25:01.987Z,97312.41
2023-04-02T06:26:28.074Z,97320.44
2023-04-02T06:27:31.405Z,97318.28
2023-04-02T06:28:52.564Z,97323.66
2023-04-02T06:30:01.657Z,97319.22
2023-04-02T06:31:11.477Z,97321.66
2023-04-02T06:32:14.540Z,97320.91
2023-04-02T06:33:17.911Z,97326.75
2023-04-02T06:34:24.023Z,97325.06
2023-04-02T06:35:27.935Z,97327.81
2023-04-02T06:36:31.597Z,97325.81
2023-04-02T06:37:41.006Z,97335.22
2023-04-02T06:38:45.078Z,97332.28
2023-04-02T06:39:48.498Z,97337.84
2023-04-02T06:40:59.208Z,97334.44
2023-04-02T06:42:14.397Z,97333.66
2023-04-02T06:43:36.627Z,97338.78
2023-04-02T06:44:40.111Z,97337.06
2023-04-02T06:45:46.716Z,97337.06
2023-04-02T06:47:13.219Z,97339.38
2023-04-02T06:48:18.195Z,97340.00
2023-04-02T06:49:31.186Z,97342.28
2023-04-02T06:51:11.877Z,97347.69
2023-04-02T06:52:23.601Z,97345.66
2023-04-02T06:53:43.422Z,97347.41
2023-04-02T06:54:47.401Z,97351.09
2023-04-02T06:56:13.244Z,97352.75
2023-04-02T06:57:16.777Z,97356.47
2023-04-02T06:58:20.417Z,97356.03
2023-04-02T06:59:23.761Z,97355.25
2023-04-02T07:00:43.224Z,97352.62
2023-04-02T07:01:53.836Z,97359.88
2023-04-02T07:02:58.100Z,97352.44
2023-04-02T07:04:01.292Z,97352.38
2023-04-02T07:05:09.468Z,97351.22
2023-04-02T07:06:22.152Z,97354.13
2023-04-02T07:07:25.173Z,97354.44
2023-04-02T07:08:28.444Z,97349.00
2023-04-02T07:09:31.391Z,97347.00
2023-04-02T07:10:34.672Z,97342.50
2023-04-02T07:11:37.788Z,97351.63
2023-04-02T07:12:40.919Z,97343.13
2023-04-02T07:13:44.284Z,97348.72
2023-04-02T07:14:48.232Z,97358.72
2023-04-02T07:15:53.633Z,97353.72
2023-04-02T07:16:57.116Z,97359.53
2023-04-02T07:18:00.478Z,97355.41
2023-04-02T07:19:04.380Z,97353.41
2023-04-02T07:20:20.810Z,97355.19
2023-04-02T07:21:24.028Z,97359.84
2023-04-02T07:22:27.181Z,97360.12
2023-04-02T07:23:30.064Z,97354.41
2023-04-02T07:24:33.150Z,97359.81
2023-04-02T07:25:36.919Z,97361.69
2023-04-02T07:26:40.642Z,97359.47
2023-04-02T07:27:43.949Z,97363.16
2023-04-02T07:28:46.919Z,97364.03
2023-04-02T07:29:49.744Z,97352.97
2023-04-02T07:30:53.033Z,97356.87
2023-04-02T07:31:56.016Z,97363.63
2023-04-02T07:32:59.263Z,97359.03
2023-04-02T07:34:02.806Z,97367.28
2023-04-02T07:35:06.251Z,97360.16
2023-04-02T07:36:19.778Z,97357.31
2023-04-02T07:37:22.726Z,97358.09
2023-04-02T07:38:26.542Z,97354.47
2023-04-02T07:39:29.719Z,97357.31
2023-04-02T07:40:32.662Z,97363.87
2023-04-02T07:41:58.420Z,97360.50
2023-04-02T07:43:01.807Z,97364.94
2023-04-02T07:44:04.930Z,97362.25
2023-04-02T07:45:08.728Z,97367.84
2023-04-02T07:46:14.322Z,97368.19
2023-04-02T07:47:17.379Z,97366.59
2023-04-02T07:48:20.353Z,97367.69
2023-04-02T07:49:23.226Z,97365.13
2023-04-02T07:50:26.115Z,97369.75
2023-04-02T07:51:28.962Z,97375.06
2023-04-02T07:52:31.858Z,97370.19
2023-04-02T07:53:38.125Z,97375.75
2023-04-02T07:54:41.045Z,97384.31
2023-04-02T07:55:43.898Z,97369.97
2023-04-02T07:56:47.162Z,97376.16
2023-04-02T07:57:56.074Z,97368.19
2023-04-02T07:58:58.909Z,97373.34
2023-04-02T08:00:02.148Z,97382.28
2023-04-02T08:01:05.702Z,97385.06
2023-04-02T08:02:22.215Z,97378.75
2023-04-02T08:03:26.238Z,97382.91
2023-04-02T08:04:29.058Z,97380.31
2023-04-02T08:05:32.919Z,97379.06
2023-04-02T08:06:35.679Z,97378.63
2023-04-02T08:07:39.463Z,97380.84
2023-04-02T08:08:42.806Z,97379.50
2023-04-02T08:09:46.213Z,97380.72
2023-04-02T08:10:51.971Z,97375.78
2023-04-02T08:11:55.051Z,97381.44
2023-04-02T08:12:58.349Z,97383.59
2023-04-02T08:14:01.432Z,97381.19
2023-04-02T08:15:09.234Z,97388.41
2023-04-02T08:16:12.247Z,97385.41
2023-04-02T08:17:15.520Z,97390.38
2023-04-02T08:18:18.565Z,97392.25
2023-04-02T08:19:22.647Z,97399.59
2023-04-02T08:20:26.363Z,97392.91
2023-04-02T08:21:29.253Z,97398.38
2023-04-02T08:22:32.102Z,97395.00
2023-04-02T08:23:35.889Z,97391.47
2023-04-02T08:24:38.763Z,97398.00
2023-04-02T08:25:41.650Z,97399.34
2023-04-02T08:26:45.459Z,97395.37
2023-04-02T08:27:48.920Z,97400.13
2023-04-02T08:28:51.872Z,97398.47
2023-04-02T08:29:54.801Z,97404.50
2023-04-02T08:30:57.780Z,97399.00
2023-04-02T08:32:01.075Z,97396.81
2023-04-02T08:33:04.423Z,97395.63
2023-04-02T08:34:08.104Z,97405.59
2023-04-02T08:35:17.151Z,97402.31
2023-04-02T08:36:25.330Z,97401.34
2023-04-02T08:37:28.360Z,97395.75
2023-04-02T08:38:31.444Z,97404.63
2023-04-02T08:39:35.470Z,97399.25
2023-04-02T08:40:42.062Z,97398.47
2023-04-02T08:42:00.247Z,97401.28
2023-04-02T08:43:15.115Z,97402.28
2023-04-02T08:44:32.796Z,97404.66
2023-04-02T08:45:55.980Z,97397.34
2023-04-02T08:47:05.941Z,97394.31
2023-04-02T08:48:11.645Z,97399.34
2023-04-02T08:49:20.052Z,97401.59
2023-04-02T08:50:49.228Z,97400.41
2023-04-02T08:51:52.454Z,97405.16
2023-04-02T08:52:55.732Z,97411.19
2023-04-02T08:54:17.767Z,97411.63
2023-04-02T08:55:47.934Z,97407.69
2023-04-02T08:56:58.158Z,97411.19
2023-04-02T08:58:28.090Z,97408.91
2023-04-02T08:59:35.860Z,97409.75
2023-04-02T09:00:41.956Z,97414.41
2023-04-02T09:02:07.423Z,97412.44
2023-04-02T09:03:45.830Z,97419.00
2023-04-02T09:04:49.356Z,97421.12
2023-04-02T09:05:53.203Z,97419.31
2023-04-02T09:06:57.561Z,97418.47
2023-04-02T09:08:05.350Z,97425.50
2023-04-02T09:09:09.287Z,97424.78
2023-04-02T09:10:19.079Z,97428.66
2023-04-02T09:11:21.934Z,97418.72
2023-04-02T09:12:29.448Z,97422.19
2023-04-02T09:13:37.789Z,97423.03
2023-04-02T09:14:53.682Z,97425.78
2023-04-02T09:16:21.790Z,97431.81
2023-04-02T09:17:27.357Z,97421.78
2023-04-02T09:18:33.488Z,97425.28
2023-04-02T09:19:45.334Z,97426.41
2023-04-02T09:20:50.370Z,97425.53
2023-04-02T09:22:16.795Z,97421.59
2023-04-02T09:23:26.250Z,97421.25
2023-04-02T09:24:29.341Z,97424.22
2023-04-02T09:25:33.589Z,97417.28
2023-04-02T09:26:37.179Z,97415.22
2023-04-02T09:27:40.218Z,97430.78
2023-04-02T09:28:43.243Z,97422.22
2023-04-02T09:29:49.681Z,97431.13
2023-04-02T09:31:07.043Z,97426.94
2023-04-02T09:32:28.231Z,97427.50
2023-04-02T09:33:42.984Z,97437.25
2023-04-02T09:34:45.824Z,97430.34
2023-04-02T09:35:51.615Z,97434.16
2023-04-02T09:36:54.838Z,97444.50
2023-04-02T09:38:22.053Z,97442.63
2023-04-02T09:39:29.070Z,97447.91
2023-04-02T09:40:44.012Z,97452.03
2023-04-02T09:41:55.818Z,97444.38
2023-04-02T09:43:12.940Z,97454.78
2023-04-02T09:44:21.915Z,97455.53
2023-04-02T09:45:28.747Z,97449.72
2023-04-02T09:46:31.989Z,97458.56
2023-04-02T09:47:36.671Z,97454.44
2023-04-02T09:49:01.565Z,97458.22
2023-04-02T09:50:15.545Z,97449.19
2023-04-02T09:51:24.805Z,97457.06
2023-04-02T09:52:28.936Z,97459.06
2023-04-02T09:53:36.466Z,97450.81
2023-04-02T09:54:41.896Z,97451.16
2023-04-02T09:55:44.767Z,97451.44
2023-04-02T09:57:24.219Z,97443.59
2023-04-02T09:58:27.425Z,97450.81
2023-04-02T09:59:30.689Z,97450.22
2023-04-02T10:00:34.575Z,97456.72
2023-04-02T10:01:42.938Z,97455.50
2023-04-02T10:02:47.295Z,97453.13
2023-04-02T10:03:50.131Z,97457.84
2023-04-02T10:04:53.311Z,97458.91
2023-04-02T10:06:08.561Z,97459.03
2023-04-02T10:07:38.020Z,97451.47
2023-04-02T10:08:43.932Z,97465.56
2023-04-02T10:09:59.001Z,97463.63
2023-04-02T10:11:36.403Z,97461.53
2023-04-02T10:12:42.656Z,97469.53
2023-04-02T10:14:02.036Z,97461.66
2023-04-02T10:15:07.597Z,97468.13
2023-04-02T10:16:13.364Z,97460.25
2023-04-02T10:17:22.467Z,97467.50
2023-04-02T10:18:39.177Z,97470.44
2023-04-02T10:19:49.125Z,97460.50
2023-04-02T10:20:54.702Z,97460.81
2023-04-02T10:22:01.061Z,97470.09
2023-04-02T10:23:05.434Z,97469.94
2023-04-02T10:24:17.948Z,97460.94
2023-04-02T10:25:25.738Z,97460.75
2023-04-02T10:26:34.354Z,97457.53
2023-04-02T10:27:57.776Z,97459.72
2023-04-02T10:29:15.339Z,97452.59
2023-04-02T10:30:29.989Z,97454.87
2023-04-02T10:32:04.181Z,97450.94
2023-04-02T10:33:13.836Z,97457.13
2023-04-02T10:34:25.124Z,97450.28
2023-04-02T10:35:54.246Z,97454.81
2023-04-02T10:37:06.071Z,97454.09
2023-04-02T10:38:38.980Z,97455.87
2023-04-02T10:39:52.035Z,97451.50
2023-04-02T10:41:12.477Z,97450.84
2023-04-02T10:42:24.130Z,97455.03
2023-04-02T10:44:12.586Z,97449.31
2023-04-02T10:45:38.899Z,97455.34
2023-04-02T10:47:20.918Z,97447.81
2023-04-02T10:48:52.780Z,97441.03
2023-04-02T10:50:32.772Z,97443.38
2023-04-02T10:51:35.711Z,97444.81
2023-04-02T10:53:11.296Z,97442.78
2023-04-02T10:54:46.701Z,97441.75
2023-04-02T10:56:03.772Z,97439.34
2023-04-02T10:57:11.219Z,97437.56
2023-04-02T10:58:24.859Z,97443.62
2023-04-02T10:59:34.035Z,97432.37
2023-04-02T11:00:42.493Z,97445.56
2023-04-02T11:01:48.041Z,97445.25
2023-04-02T11:02:56.936Z,97441.91
2023-04-02T11:04:06.215Z,97438.47
2023-04-02T11:05:43.620Z,97440.53
2023-04-02T11:07:11.129Z,97441.88
2023-04-02T11:08:38.484Z,97443.34
2023-04-02T11:09:45.914Z,97447.19
2023-04-02T11:10:54.372Z,97444.12
2023-04-02T11:12:00.506Z,97442.44
2023-04-02T11:13:23.048Z,97437.78
2023-04-02T11:14:29.300Z,97436.97
2023-04-02T11:15:32.519Z,97450.78
2023-04-02T11:16:38.439Z,97444.28
2023-04-02T11:17:45.548Z,97435.56
2023-04-02T11:19:10.238Z,97439.16
2023-04-02T11:20:44.537Z,97443.13
2023-04-02T11:22:16.403Z,97436.62
2023-04-02T11:23:20.942Z,97435.81
2023-04-02T11:24:38.631Z,97430.63
2023-04-02T11:25:42.928Z,97428.16
2023-04-02T11:26:47.746Z,97429.44
2023-04-02T11:27:50.832Z,97427.19
2023-04-02T11:29:05.288Z,97428.38
2023-04-02T11:30:25.913Z,97422.19
2023-04-02T11:31:28.938Z,97422.47
2023-04-02T11:32:40.758Z,97430.66
2023-04-02T11:33:46.051Z,97425.50
2023-04-02T11:35:02.933Z,97431.69
2023-04-02T11:36:46.887Z,97438.13
2023-04-02T11:37:50.044Z,97431.25
2023-04-02T11:38:55.007Z,97422.25
2023-04-02T11:40:22.542Z,97429.09
2023-04-02T11:42:02.708Z,97428.44
2023-04-02T11:43:33.034Z,97426.72
2023-04-02T11:44:36.447Z,97427.75
2023-04-02T11:45:52.578Z,97440.59
2023-04-02T11:47:19.770Z,97432.03
2023-04-02T11:48:22.831Z,97426.81
2023-04-02T11:49:41.016Z,97430.38
2023-04-02T11:50:46.281Z,97438.75
2023-04-02T11:51:54.366Z,97429.97
2023-04-02T11:53:16.922Z,97438.50
2023-04-02T11:54:29.762Z,97438.09
2023-04-02T11:55:35.387Z,97443.00
2023-04-02T11:57:15.628Z,97444.50
2023-04-02T11:58:27.721Z,97436.88
2023-04-02T11:59:57.876Z,97431.53
2023-04-02T12:01:09.555Z,97430.13
2023-04-02T12:02:24.146Z,97433.16
2023-04-02T12:04:04.772Z,97433.53
2023-04-02T12:05:15.838Z,97426.69
2023-04-02T12:06:47.449Z,97432.00
2023-04-02T12:08:07.902Z,97424.19
2023-04-02T12:09:44.830Z,97434.13
2023-04-02T12:11:02.313Z,97427.34
2023-04-02T12:12:34.426Z,97418.75
2023-04-02T12:13:39.972Z,97421.34
2023-04-02T12:14:48.818Z,97431.06
2023-04-02T12:15:52.941Z,97420.72
2023-04-02T12:16:56.749Z,97422.56
2023-04-02T12:18:15.044Z,97429.59
2023-04-02T12:19:18.502Z,97417.50
2023-04-02T12:20:32.001Z,97420.50
2023-04-02T12:21:35.207Z,97417.91
2023-04-02T12:22:49.313Z,97414.22
2023-04-02T12:23:56.203Z,97414.38
2023-04-02T12:25:02.225Z,97414.34
2023-04-02T12:26:26.811Z,97412.72
2023-04-02T12:27:30.463Z,97410.34
2023-04-02T12:28:35.032Z,97404.75
2023-04-02T12:29:39.617Z,97410.16
2023-04-02T12:30:44.805Z,97407.72
2023-04-02T12:31:49.376Z,97404.47
2023-04-02T12:32:53.102Z,97403.00
2023-04-02T12:33:56.104Z,97407.53
2023-04-02T12:35:01.836Z,97400.94
2023-04-02T12:36:22.915Z,97401.66
2023-04-02T12:37:31.690Z,97399.91
2023-04-02T12:38:44.212Z,97403.53
2023-04-02T12:39:54.683Z,97403.88
2023-04-02T12:41:00.379Z,97405.09
2023-04-02T12:42:03.361Z,97397.66
2023-04-02T12:43:23.973Z,97409.31
2023-04-02T12:44:28.784Z,97403.66
2023-04-02T12:45:37.078Z,97396.72
2023-04-02T12:46:40.915Z,97396.97
2023-04-02T12:47:47.408Z,97405.50
2023-04-02T12:48:50.488Z,97398.53
2023-04-02T12:49:54.773Z,97397.56
2023-04-02T12:50:58.441Z,97400.97
2023-04-02T12:52:10.109Z,97398.66
2023-04-02T12:53:36.143Z,97393.38
2023-04-02T12:54:47.503Z,97393.28
2023-04-02T12:55:52.752Z,97394.34
2023-04-02T12:57:23.246Z,97395.00
2023-04-02T12:58:48.221Z,97385.97
2023-04-02T12:59:51.954Z,97392.94
2023-04-02T13:01:11.497Z,97386.81
2023-04-02T13:02:45.283Z,97385.25
2023-04-02T13:04:13.123Z,97383.22
2023-04-02T13:05:36.411Z,97385.28
2023-04-02T13:06:42.756Z,97386.50
2023-04-02T13:07:47.769Z,97389.09
2023-04-02T13:08:51.476Z,97388.53
2023-04-02T13:10:00.881Z,97390.28
2023-04-02T13:11:05.807Z,97382.38
2023-04-02T13:12:43.768Z,97388.53
2023-04-02T13:13:48.811Z,97389.34
2023-04-02T13:14:57.273Z,97378.53
2023-04-02T13:16:23.269Z,97387.69
2023-04-02T13:17:46.954Z,97391.38
2023-04-02T13:18:50.841Z,97401.00
2023-04-02T13:19:53.701Z,97397.13
2023-04-02T13:21:03.273Z,97410.59
2023-04-02T13:22:32.277Z,97401.03
2023-04-02T13:23:37.957Z,97407.16
2023-04-02T13:24:41.605Z,97400.47
2023-04-02T13:25:44.847Z,97394.84
2023-04-02T13:26:49.918Z,97392.13
2023-04-02T13:27:54.114Z,97393.94
2023-04-02T13:29:15.891Z,97391.47
2023-04-02T13:30:24.495Z,97392.84
2023-04-02T13:31:32.091Z,97390.00
2023-04-02T13:32:35.497Z,97395.09
2023-04-02T13:33:38.573Z,97408.56
2023-04-02T13:34:41.925Z,97405.00
2023-04-02T13:35:45.686Z,97400.44
2023-04-02T13:36:49.093Z,97404.75
2023-04-02T13:37:52.090Z,97404.50
2023-04-02T13:38:56.237Z,97412.66
2023-04-02T13:39:59.208Z,97406.19
2023-04-02T13:41:02.675Z,97412.00
2023-04-02T13:42:08.257Z,97416.59
2023-04-02T13:43:19.062Z,97410.22
2023-04-02T13:44:30.637Z,97411.88
2023-04-02T13:45:39.548Z,97413.56
2023-04-02T13:46:42.651Z,97413.00
2023-04-02T13:47:45.766Z,97416.09
2023-04-02T13:48:50.551Z,97414.47
2023-04-02T13:49:53.797Z,97413.91
2023-04-02T13:50:57.402Z,97414.59
2023-04-02T13:52:06.563Z,97415.03
2023-04-02T13:53:20.807Z,97410.69
2023-04-02T13:54:36.468Z,97412.72
2023-04-02T13:55:43.034Z,97412.56
2023-04-02T13:56:47.013Z,97411.75
2023-04-02T13:57:50.642Z,97416.44